createdAt,value
2023-05-21T00:01:08.353Z,5.93
2023-05-21T00:03:36.229Z,5.88
2023-05-21T00:06:03.946Z,5.30
2023-05-21T00:08:31.316Z,5.75
2023-05-21T00:10:58.117Z,5.32
2023-05-21T00:13:24.854Z,5.53
2023-05-21T00:15:51.852Z,5.35
2023-05-21T00:18:18.632Z,5.63
2023-05-21T00:20:45.857Z,5.68
2023-05-21T00:23:12.900Z,5.90
2023-05-21T00:25:39.602Z,6.05
2023-05-21T00:28:06.371Z,5.15
2023-05-21T00:30:33.240Z,5.78
2023-05-21T00:33:02.673Z,6.40
2023-05-21T00:35:29.923Z,5.85
2023-05-21T00:37:57.420Z,6.10
2023-05-21T00:40:24.342Z,6.90
2023-05-21T00:42:50.967Z,6.68
2023-05-21T00:45:17.703Z,6.57
2023-05-21T00:47:45.943Z,6.20
2023-05-21T00:50:14.953Z,6.18
2023-05-21T00:52:43.467Z,7.00
2023-05-21T00:55:11.213Z,6.38
2023-05-21T00:57:38.638Z,6.32
2023-05-21T01:00:10.181Z,6.85
2023-05-21T01:02:38.334Z,6.28
2023-05-21T01:05:06.732Z,6.80
2023-05-21T01:07:39.121Z,6.75
2023-05-21T01:10:07.869Z,6.07
2023-05-21T01:12:38.098Z,6.10
2023-05-21T01:15:05.886Z,6.72
2023-05-21T01:17:34.291Z,6.45
2023-05-21T01:20:02.000Z,5.70
2023-05-21T01:22:33.840Z,6.43
2023-05-21T01:25:02.787Z,6.20
2023-05-21T01:27:29.954Z,6.63
2023-05-21T01:29:58.008Z,6.43
2023-05-21T01:32:35.269Z,6.22
2023-05-21T01:35:08.520Z,6.18
2023-05-21T01:37:43.296Z,6.50
2023-05-21T01:40:28.697Z,6.57
2023-05-21T01:42:55.960Z,6.32
2023-05-21T01:45:25.714Z,6.75
2023-05-21T01:47:55.956Z,6.60
2023-05-21T01:50:25.190Z,6.38
2023-05-21T01:52:53.641Z,6.43
2023-05-21T01:55:24.920Z,6.47
2023-05-21T01:57:55.812Z,6.00
2023-05-21T02:00:24.913Z,5.97
2023-05-21T02:02:52.157Z,6.38
2023-05-21T02:05:22.578Z,6.15
2023-05-21T02:07:51.988Z,6.50
2023-05-21T02:10:22.791Z,6.80
2023-05-21T02:12:49.584Z,6.00
2023-05-21T02:15:18.121Z,6.60
2023-05-21T02:17:46.672Z,6.65
2023-05-21T02:20:13.955Z,5.97
2023-05-21T02:22:42.025Z,6.72
2023-05-21T02:25:10.389Z,6.72
2023-05-21T02:27:38.366Z,6.85
2023-05-21T02:30:07.936Z,6.28
2023-05-21T02:32:35.262Z,6.60
2023-05-21T02:35:04.207Z,6.80
2023-05-21T02:37:35.185Z,6.40
2023-05-21T02:40:04.369Z,6.38
2023-05-21T02:42:31.045Z,6.35
2023-05-21T02:44:58.024Z,6.05
2023-05-21T02:47:25.547Z,6.07
2023-05-21T02:49:53.000Z,6.55
2023-05-21T02:52:22.627Z,6.30
2023-05-21T02:54:49.551Z,6.07
2023-05-21T02:57:16.156Z,6.50
2023-05-21T02:59:42.755Z,6.43
2023-05-21T03:02:09.741Z,6.53
2023-05-21T03:04:39.357Z,6.35
2023-05-21T03:07:06.291Z,6.32
2023-05-21T03:09:33.210Z,6.10
2023-05-21T03:11:59.834Z,6.13
2023-05-21T03:14:26.498Z,6.60
2023-05-21T03:16:53.543Z,6.82
2023-05-21T03:19:21.013Z,6.10
2023-05-21T03:21:49.218Z,6.53
2023-05-21T03:24:16.105Z,5.80
2023-05-21T03:26:42.733Z,6.00
2023-05-21T03:29:09.595Z,6.30
2023-05-21T03:31:36.702Z,6.20
2023-05-21T03:34:03.331Z,6.13
2023-05-21T03:36:29.977Z,6.40
2023-05-21T03:38:56.829Z,5.57
2023-05-21T03:41:23.534Z,6.45
2023-05-21T03:43:50.221Z,6.72
2023-05-21T03:46:16.967Z,6.45
2023-05-21T03:48:43.576Z,6.15
2023-05-21T03:51:10.233Z,7.07
2023-05-21T03:53:37.008Z,6.90
2023-05-21T03:56:03.761Z,6.72
2023-05-21T03:58:30.746Z,6.53
2023-05-21T04:00:57.802Z,7.05
2023-05-21T04:03:24.554Z,6.50
2023-05-21T04:05:51.532Z,6.57
2023-05-21T04:08:18.388Z,6.78
2023-05-21T04:10:45.122Z,8.55
2023-05-21T04:13:11.741Z,6.82
2023-05-21T04:15:39.179Z,6.90
2023-05-21T04:18:07.349Z,6.55
2023-05-21T04:20:34.068Z,6.78
2023-05-21T04:23:01.314Z,7.03
2023-05-21T04:25:27.930Z,6.95
2023-05-21T04:27:54.832Z,6.60
2023-05-21T04:30:24.589Z,6.50
2023-05-21T04:32:52.819Z,6.57
2023-05-21T04:35:19.649Z,6.90
2023-05-21T04:37:46.480Z,6.82
2023-05-21T04:40:18.315Z,7.10
2023-05-21T04:42:46.928Z,6.35
2023-05-21T04:45:13.892Z,6.60
2023-05-21T04:47:40.605Z,7.15
2023-05-21T04:50:07.936Z,6.93
2023-05-21T04:52:35.131Z,6.72
2023-05-21T04:55:01.805Z,6.28
2023-05-21T04:57:29.539Z,6.32
2023-05-21T04:59:57.938Z,7.03
2023-05-21T05:02:24.702Z,7.05
2023-05-21T05:04:51.375Z,6.97
2023-05-21T05:07:18.206Z,7.30
2023-05-21T05:09:44.847Z,7.38
2023-05-21T05:12:11.437Z,7.60
2023-05-21T05:14:38.675Z,7.80
2023-05-21T05:17:05.721Z,7.70
2023-05-21T05:19:32.551Z,7.70
2023-05-21T05:21:59.432Z,7.60
2023-05-21T05:24:26.060Z,7.68
2023-05-21T05:26:52.718Z,6.88
2023-05-21T05:29:19.338Z,6.88
2023-05-21T05:31:45.994Z,6.43
2023-05-21T05:34:12.601Z,7.25
2023-05-21T05:36:39.484Z,6.70
2023-05-21T05:39:06.285Z,6.22
2023-05-21T05:41:32.889Z,5.78
2023-05-21T05:43:59.517Z,5.88
2023-05-21T05:46:26.224Z,6.32
2023-05-21T05:48:52.967Z,6.50
2023-05-21T05:51:20.068Z,6.30
2023-05-21T05:53:46.706Z,6.32
2023-05-21T05:56:13.433Z,6.30
2023-05-21T05:58:40.163Z,6.00
2023-05-21T06:01:06.809Z,5.93
2023-05-21T06:03:33.587Z,6.15
2023-05-21T06:06:00.874Z,6.13
2023-05-21T06:08:27.596Z,6.15
2023-05-21T06:10:54.247Z,5.68
2023-05-21T06:13:21.202Z,6.25
2023-05-21T06:15:47.938Z,5.60
2023-05-21T06:18:14.646Z,6.07
2023-05-21T06:20:41.424Z,6.32
2023-05-21T06:23:08.997Z,6.32
2023-05-21T06:25:35.958Z,5.90
2023-05-21T06:28:03.103Z,5.10
2023-05-21T06:30:29.762Z,5.40
2023-05-21T06:32:57.358Z,5.40
2023-05-21T06:35:24.538Z,5.38
2023-05-21T06:37:51.133Z,5.05
2023-05-21T06:40:17.814Z,4.95
2023-05-21T06:42:44.573Z,5.00
2023-05-21T06:45:11.845Z,5.07
2023-05-21T06:47:38.589Z,5.28
2023-05-21T06:50:05.539Z,5.43
2023-05-21T06:52:32.344Z,5.13
2023-05-21T06:54:59.361Z,4.75
2023-05-21T06:57:26.325Z,4.60
2023-05-21T06:59:52.978Z,5.03
2023-05-21T07:02:19.668Z,4.97
2023-05-21T07:04:46.396Z,4.38
2023-05-21T07:07:13.022Z,4.45
2023-05-21T07:09:39.678Z,4.97
2023-05-21T07:12:06.984Z,4.00
2023-05-21T07:14:33.629Z,5.00
2023-05-21T07:17:00.356Z,4.10
2023-05-21T07:19:27.312Z,4.55
2023-05-21T07:21:54.042Z,3.40
2023-05-21T07:24:21.199Z,3.70
2023-05-21T07:26:48.393Z,3.78
2023-05-21T07:29:15.034Z,3.60
2023-05-21T07:31:41.704Z,3.75
2023-05-21T07:34:08.616Z,3.97
2023-05-21T07:36:35.256Z,3.90
2023-05-21T07:39:01.938Z,3.15
2023-05-21T07:41:28.674Z,3.75
2023-05-21T07:43:55.540Z,3.95
2023-05-21T07:46:22.218Z,3.58
2023-05-21T07:48:50.134Z,3.65
2023-05-21T07:51:17.298Z,3.22
2023-05-21T07:53:44.015Z,3.45
2023-05-21T07:56:10.995Z,3.80
2023-05-21T07:58:37.847Z,3.58
2023-05-21T08:01:04.592Z,3.30
2023-05-21T08:03:31.780Z,3.83
2023-05-21T08:05:58.428Z,3.90
2023-05-21T08:08:25.581Z,3.50
2023-05-21T08:10:52.425Z,3.47
2023-05-21T08:13:19.096Z,3.50
2023-05-21T08:15:45.841Z,3.10
2023-05-21T08:18:12.504Z,3.30
2023-05-21T08:20:39.316Z,3.60
2023-05-21T08:23:06.124Z,3.50
2023-05-21T08:25:33.176Z,3.90
2023-05-21T08:27:59.935Z,3.70
2023-05-21T08:30:26.648Z,4.00
2023-05-21T08:32:53.975Z,4.43
2023-05-21T08:35:20.863Z,4.80
2023-05-21T08:37:47.489Z,4.30
2023-05-21T08:40:14.524Z,4.57
2023-05-21T08:42:49.214Z,4.30
2023-05-21T08:45:24.395Z,3.92
2023-05-21T08:47:58.607Z,4.20
2023-05-21T08:50:28.210Z,3.97
2023-05-21T08:52:55.480Z,4.47
2023-05-21T08:55:24.467Z,3.92
2023-05-21T08:57:53.634Z,4.40
2023-05-21T09:00:25.148Z,4.40
2023-05-21T09:02:54.865Z,4.25
2023-05-21T09:05:22.753Z,3.45
2023-05-21T09:08:09.440Z,3.67
2023-05-21T09:10:39.311Z,4.00
2023-05-21T09:13:08.021Z,3.90
2023-05-21T09:15:35.074Z,3.63
2023-05-21T09:18:01.971Z,3.67
2023-05-21T09:20:28.977Z,3.67
2023-05-21T09:22:55.857Z,3.97
2023-05-21T09:25:29.489Z,4.10
2023-05-21T09:27:56.775Z,4.25
2023-05-21T09:30:26.802Z,4.18
2023-05-21T09:32:57.739Z,4.40
2023-05-21T09:35:24.767Z,3.90
2023-05-21T09:37:53.262Z,4.40
2023-05-21T09:40:24.941Z,4.28
2023-05-21T09:42:53.846Z,3.70
2023-05-21T09:45:30.625Z,3.97
2023-05-21T09:47:57.285Z,3.53
2023-05-21T09:50:31.504Z,3.58
2023-05-21T09:52:58.610Z,3.25
2023-05-21T09:55:27.029Z,3.47
2023-05-21T09:57:53.723Z,3.70
2023-05-21T10:00:27.505Z,3.55
2023-05-21T10:02:56.031Z,3.55
2023-05-21T10:05:27.737Z,3.25
2023-05-21T10:08:04.256Z,3.63
2023-05-21T10:10:32.425Z,3.80
2023-05-21T10:13:10.511Z,3.63
2023-05-21T10:15:45.921Z,3.53
2023-05-21T10:18:13.804Z,3.55
2023-05-21T10:20:41.192Z,3.70
2023-05-21T10:23:08.171Z,3.70
2023-05-21T10:25:35.193Z,3.30
2023-05-21T10:28:02.020Z,3.80
2023-05-21T10:30:29.149Z,3.55
2023-05-21T10:32:57.399Z,3.50
2023-05-21T10:35:24.626Z,3.35
2023-05-21T10:37:52.856Z,4.18
2023-05-21T10:40:24.613Z,3.72
2023-05-21T10:42:51.189Z,3.90
2023-05-21T10:45:57.885Z,3.58
2023-05-21T10:48:35.622Z,4.13
2023-05-21T10:51:33.020Z,4.05
2023-05-21T10:54:02.942Z,4.28
2023-05-21T10:56:38.922Z,4.20
2023-05-21T10:59:24.328Z,4.18
2023-05-21T11:01:56.904Z,3.70
2023-05-21T11:04:27.103Z,3.67
2023-05-21T11:06:54.276Z,3.60
2023-05-21T11:09:20.975Z,3.40
2023-05-21T11:11:59.546Z,3.63
2023-05-21T11:14:39.354Z,3.13
2023-05-21T11:17:09.893Z,2.80
2023-05-21T11:19:39.124Z,3.20
2023-05-21T11:22:20.261Z,2.78
2023-05-21T11:24:49.363Z,2.88
2023-05-21T11:27:36.037Z,2.63
2023-05-21T11:30:16.360Z,2.90
2023-05-21T11:33:12.506Z,3.20
2023-05-21T11:35:58.283Z,2.80
2023-05-21T11:38:29.786Z,3.00
2023-05-21T11:41:03.183Z,2.45
2023-05-21T11:43:29.830Z,2.70
2023-05-21T11:46:05.968Z,2.33
2023-05-21T11:48:38.009Z,2.30
2023-05-21T11:51:04.993Z,2.33
2023-05-21T11:53:31.719Z,2.15
2023-05-21T11:55:59.754Z,2.75
2023-05-21T11:58:26.589Z,2.42
2023-05-21T12:00:53.704Z,2.50
2023-05-21T12:03:26.689Z,2.10
2023-05-21T12:05:54.663Z,2.58
2023-05-21T12:08:25.484Z,2.13
2023-05-21T12:11:00.073Z,2.70
2023-05-21T12:13:27.868Z,2.30
2023-05-21T12:15:54.729Z,2.70
2023-05-21T12:18:22.479Z,2.03
2023-05-21T12:20:49.214Z,2.30
2023-05-21T12:23:34.533Z,2.95
2023-05-21T12:26:01.443Z,2.20
2023-05-21T12:28:28.278Z,2.03
2023-05-21T12:30:55.603Z,2.00
2023-05-21T12:33:24.983Z,2.28
2023-05-21T12:35:52.622Z,2.60
2023-05-21T12:38:19.566Z,2.35
2023-05-21T12:40:46.270Z,2.20
2023-05-21T12:43:13.133Z,2.60
2023-05-21T12:45:39.874Z,3.03
2023-05-21T12:48:06.952Z,2.30
2023-05-21T12:50:35.567Z,2.55
2023-05-21T12:53:02.901Z,2.13
2023-05-21T12:55:31.625Z,2.35
2023-05-21T12:58:09.078Z,2.42
2023-05-21T13:00:36.551Z,3.08
2023-05-21T13:03:06.154Z,3.45
2023-05-21T13:05:33.428Z,2.25
2023-05-21T13:08:00.149Z,2.45
2023-05-21T13:10:26.745Z,2.20
2023-05-21T13:12:53.957Z,2.65
2023-05-21T13:15:24.469Z,2.60
2023-05-21T13:17:52.435Z,2.20
2023-05-21T13:20:24.599Z,2.40
2023-05-21T13:22:52.185Z,2.15
2023-05-21T13:25:25.185Z,1.83
2023-05-21T13:27:53.365Z,2.20
2023-05-21T13:30:21.578Z,1.98
2023-05-21T13:32:48.816Z,2.05
2023-05-21T13:35:16.831Z,1.83
2023-05-21T13:37:44.521Z,1.92
2023-05-21T13:40:17.522Z,1.88
2023-05-21T13:42:45.716Z,2.03
2023-05-21T13:45:15.685Z,2.30
2023-05-21T13:47:45.465Z,2.20
2023-05-21T13:50:12.862Z,2.08
2023-05-21T13:52:39.920Z,2.45
2023-05-21T13:55:07.503Z,2.00
2023-05-21T13:57:34.315Z,1.90
2023-05-21T14:00:01.405Z,2.10
2023-05-21T14:02:28.909Z,2.47
2023-05-21T14:04:55.594Z,2.00
2023-05-21T14:07:22.546Z,2.08
2023-05-21T14:09:50.020Z,1.92
2023-05-21T14:12:17.148Z,1.90
2023-05-21T14:14:44.151Z,2.15
2023-05-21T14:17:11.268Z,2.22
2023-05-21T14:19:37.907Z,1.95
2023-05-21T14:22:04.756Z,2.10
2023-05-21T14:24:31.690Z,2.10
2023-05-21T14:26:58.362Z,2.10
2023-05-21T14:29:24.987Z,2.13
2023-05-21T14:31:52.136Z,2.50
2023-05-21T14:34:18.797Z,2.40
2023-05-21T14:36:45.421Z,3.42
2023-05-21T14:39:12.372Z,3.70
2023-05-21T14:41:39.826Z,4.00
2023-05-21T14:44:06.569Z,3.35
2023-05-21T14:46:35.686Z,3.72
2023-05-21T14:49:03.741Z,3.50
2023-05-21T14:51:31.611Z,3.22
2023-05-21T14:53:58.534Z,3.30
2023-05-21T14:56:27.653Z,3.33
2023-05-21T14:58:54.755Z,4.40
2023-05-21T15:01:21.791Z,4.10
2023-05-21T15:03:48.664Z,3.70
2023-05-21T15:06:15.354Z,4.45
2023-05-21T15:08:42.198Z,3.90
2023-05-21T15:11:09.912Z,3.67
2023-05-21T15:13:36.623Z,3.35
2023-05-21T15:16:03.551Z,4.63
2023-05-21T15:18:30.326Z,5.75
2023-05-21T15:20:57.112Z,5.10
2023-05-21T15:23:23.846Z,3.05
2023-05-21T15:25:50.608Z,3.10
2023-05-21T15:28:17.340Z,3.15
2023-05-21T15:30:44.687Z,3.38
2023-05-21T15:33:11.630Z,3.67
2023-05-21T15:35:38.618Z,3.47
2023-05-21T15:38:05.980Z,3.25
2023-05-21T15:40:32.778Z,3.50
2023-05-21T15:42:59.609Z,3.92
2023-05-21T15:45:26.481Z,3.47
2023-05-21T15:47:53.176Z,3.80
2023-05-21T15:50:19.836Z,3.20
2023-05-21T15:52:46.671Z,3.60
2023-05-21T15:55:14.348Z,3.35
2023-05-21T15:57:41.111Z,2.85
2023-05-21T16:00:09.184Z,3.83
2023-05-21T16:02:35.982Z,3.42
2023-05-21T16:05:02.826Z,3.25
2023-05-21T16:07:29.841Z,3.58
2023-05-21T16:09:56.533Z,3.10
2023-05-21T16:12:23.289Z,3.20
2023-05-21T16:14:50.168Z,3.47
2023-05-21T16:17:18.026Z,3.20
2023-05-21T16:19:44.785Z,2.97
2023-05-21T16:22:11.577Z,3.00
2023-05-21T16:24:38.198Z,3.03
2023-05-21T16:27:05.149Z,3.35
2023-05-21T16:29:32.131Z,3.75
2023-05-21T16:31:58.923Z,3.03
2023-05-21T16:34:25.686Z,3.20
2023-05-21T16:36:52.513Z,3.75
2023-05-21T16:39:19.140Z,3.47
2023-05-21T16:41:45.756Z,3.58
2023-05-21T16:44:12.766Z,3.30
2023-05-21T16:46:39.470Z,3.50
2023-05-21T16:49:06.183Z,3.50
2023-05-21T16:51:33.013Z,3.38
2023-05-21T16:53:59.826Z,3.40
2023-05-21T16:56:27.640Z,3.55
2023-05-21T16:58:54.761Z,3.58
2023-05-21T17:01:21.464Z,3.90
2023-05-21T17:03:48.188Z,3.67
2023-05-21T17:06:15.645Z,3.40
2023-05-21T17:08:42.810Z,3.83
2023-05-21T17:11:09.805Z,4.18
2023-05-21T17:13:36.495Z,3.65
2023-05-21T17:16:03.295Z,3.67
2023-05-21T17:18:31.288Z,3.25
2023-05-21T17:20:59.246Z,3.45
2023-05-21T17:23:25.958Z,3.67
2023-05-21T17:25:52.732Z,4.15
2023-05-21T17:28:19.612Z,3.60
2023-05-21T17:30:48.755Z,3.83
2023-05-21T17:33:16.422Z,4.07
2023-05-21T17:35:43.364Z,3.75
2023-05-21T17:38:10.418Z,3.90
2023-05-21T17:40:37.091Z,3.95
2023-05-21T17:43:05.251Z,3.80
2023-05-21T17:45:32.148Z,4.00
2023-05-21T17:48:00.370Z,3.80
2023-05-21T17:50:28.507Z,4.13
2023-05-21T17:52:55.233Z,4.22
2023-05-21T17:55:21.930Z,4.00
2023-05-21T17:57:48.824Z,4.00
2023-05-21T18:00:16.571Z,3.90
2023-05-21T18:02:43.390Z,4.43
2023-05-21T18:05:24.806Z,3.80
2023-05-21T18:07:51.524Z,3.53
2023-05-21T18:10:18.369Z,4.57
2023-05-21T18:12:46.544Z,4.85
2023-05-21T18:15:14.880Z,4.97
2023-05-21T18:17:41.831Z,4.50
2023-05-21T18:20:08.905Z,4.90
2023-05-21T18:22:36.824Z,4.68
2023-05-21T18:25:04.559Z,5.53
2023-05-21T18:27:31.267Z,5.72
2023-05-21T18:29:57.998Z,5.35
2023-05-21T18:32:24.646Z,4.43
2023-05-21T18:34:51.751Z,5.05
2023-05-21T18:37:18.612Z,4.68
2023-05-21T18:39:45.374Z,4.75
2023-05-21T18:42:14.126Z,4.55
2023-05-21T18:44:41.116Z,4.50
2023-05-21T18:47:08.084Z,4.30
2023-05-21T18:49:36.232Z,4.60
2023-05-21T18:52:04.105Z,4.75
2023-05-21T18:54:31.257Z,4.75
2023-05-21T18:57:00.682Z,5.35
2023-05-21T18:59:28.615Z,5.40
2023-05-21T19:01:55.573Z,4.68
2023-05-21T19:04:22.520Z,4.82
2023-05-21T19:06:49.261Z,4.93
2023-05-21T19:09:15.963Z,4.82
2023-05-21T19:11:43.144Z,4.55
2023-05-21T19:14:09.771Z,4.60
2023-05-21T19:16:36.715Z,4.22
2023-05-21T19:19:04.385Z,4.53
2023-05-21T19:21:31.495Z,4.68
2023-05-21T19:23:58.554Z,4.60
2023-05-21T19:26:25.245Z,4.90
2023-05-21T19:28:54.569Z,4.25
2023-05-21T19:31:22.461Z,4.38
2023-05-21T19:33:49.578Z,3.60
2023-05-21T19:36:16.565Z,4.22
2023-05-21T19:38:50.605Z,3.75
2023-05-21T19:43:45.359Z,4.05
2023-05-21T19:46:12.428Z,3.90
2023-05-21T19:48:39.339Z,3.25
2023-05-21T19:51:06.080Z,3.67
2023-05-21T19:53:32.914Z,2.92
2023-05-21T19:55:59.897Z,2.75
2023-05-21T19:58:29.509Z,2.92
2023-05-21T20:00:58.569Z,3.00
2023-05-21T20:03:26.866Z,2.80
2023-05-21T20:05:53.946Z,2.80
2023-05-21T20:08:21.465Z,2.70
2023-05-21T20:10:51.326Z,2.90
2023-05-21T20:13:18.789Z,3.22
2023-05-21T20:15:45.869Z,3.20
2023-05-21T20:18:12.900Z,3.35
2023-05-21T20:20:41.182Z,3.10
2023-05-21T20:23:08.894Z,3.10
2023-05-21T20:25:35.675Z,3.28
2023-05-21T20:28:03.624Z,2.53
2023-05-21T20:30:35.021Z,2.30
2023-05-21T20:33:02.952Z,2.45
2023-05-21T20:35:30.445Z,2.50
2023-05-21T20:37:57.793Z,2.38
2023-05-21T20:40:24.791Z,2.92
2023-05-21T20:42:53.426Z,2.50
2023-05-21T20:45:21.275Z,2.63
2023-05-21T20:47:48.258Z,2.67
2023-05-21T20:50:17.541Z,2.78
2023-05-21T20:52:47.158Z,2.92
2023-05-21T20:55:14.735Z,2.55
2023-05-21T20:57:41.613Z,3.00
2023-05-21T21:00:10.779Z,2.33
2023-05-21T21:02:38.831Z,2.47
2023-05-21T21:05:06.094Z,2.75
2023-05-21T21:07:34.396Z,2.97
2023-05-21T21:10:01.591Z,2.75
2023-05-21T21:12:28.429Z,2.88
2023-05-21T21:14:55.704Z,3.10
2023-05-21T21:17:22.901Z,2.80
2023-05-21T21:19:49.633Z,2.90
2023-05-21T21:22:16.820Z,2.80
2023-05-21T21:24:43.680Z,3.08
2023-05-21T21:27:10.349Z,2.72
2023-05-21T21:29:37.343Z,2.55
2023-05-21T21:32:04.402Z,2.95
2023-05-21T21:34:31.007Z,3.00
2023-05-21T21:36:58.135Z,2.70
2023-05-21T21:39:26.256Z,3.13
2023-05-21T21:41:53.265Z,2.90
2023-05-21T21:44:20.242Z,3.70
2023-05-21T21:46:47.159Z,5.85
2023-05-21T21:49:15.711Z,5.65
2023-05-21T21:51:44.506Z,5.32
2023-05-21T21:54:11.817Z,4.50
2023-05-21T21:56:38.529Z,4.38
2023-05-21T21:59:05.399Z,4.30
2023-05-21T22:01:32.299Z,4.90
2023-05-21T22:03:59.272Z,4.53
2023-05-21T22:06:27.704Z,4.45
2023-05-21T22:08:54.685Z,4.32
2023-05-21T22:11:22.009Z,4.50
2023-05-21T22:13:48.923Z,4.28
2023-05-21T22:16:15.905Z,3.65
2023-05-21T22:18:42.578Z,4.13
2023-05-21T22:21:10.600Z,4.03
2023-05-21T22:23:38.183Z,4.03
2023-05-21T22:26:05.038Z,3.83
2023-05-21T22:28:31.909Z,4.05
2023-05-21T22:30:59.190Z,4.00
2023-05-21T22:33:26.920Z,3.60
2023-05-21T22:35:54.637Z,3.13
2023-05-21T22:38:21.492Z,3.15
2023-05-21T22:40:48.365Z,2.80
2023-05-21T22:43:15.437Z,2.45
2023-05-21T22:45:42.269Z,2.70
2023-05-21T22:48:09.438Z,2.67
2023-05-21T22:50:38.433Z,2.72
2023-05-21T22:53:06.015Z,2.83
2023-05-21T22:55:32.698Z,2.60
2023-05-21T22:57:59.600Z,2.80
2023-05-21T23:00:27.259Z,2.70
2023-05-21T23:02:54.842Z,2.78
2023-05-21T23:05:22.147Z,3.03
2023-05-21T23:07:49.002Z,2.45
2023-05-21T23:10:15.946Z,2.95
2023-05-21T23:12:42.867Z,2.88
2023-05-21T23:15:10.752Z,2.90
2023-05-21T23:17:38.273Z,2.78
2023-05-21T23:20:09.191Z,3.40
2023-05-21T23:22:36.875Z,3.00
2023-05-21T23:25:04.046Z,3.47
2023-05-21T23:27:30.966Z,2.97
2023-05-21T23:29:57.536Z,3.03
2023-05-21T23:32:24.308Z,3.03
2023-05-21T23:34:51.459Z,3.40
2023-05-21T23:37:18.981Z,3.10
2023-05-21T23:39:49.346Z,4.20
2023-05-21T23:42:17.115Z,3.42
2023-05-21T23:44:44.129Z,3.30
2023-05-21T23:47:10.796Z,3.22
2023-05-21T23:49:37.821Z,3.22
2023-05-21T23:52:05.133Z,3.28
2023-05-21T23:54:31.802Z,3.67
2023-05-21T23:56:58.964Z,3.45
2023-05-21T23:59:25.584Z,3.30
